sensor_id;sensor_type;location;lat;lon;timestamp;P1;durP1;ratioP1;P2;durP2;ratioP2
48574;SDS011;34352;51.084;3.712;2023-06-10T00:00:51;12.65;;;11.13;;
48574;SDS011;34352;51.084;3.712;2023-06-10T00:03:17;12.55;;;11.25;;
48574;SDS011;34352;51.084;3.712;2023-06-10T00:05:43;12.85;;;11.55;;
48574;SDS011;34352;51.084;3.712;2023-06-10T00:08:09;14.75;;;11.60;;
48574;SDS011;34352;51.084;3.712;2023-06-10T00:10:36;12.10;;;10.90;;
48574;SDS011;34352;51.084;3.712;2023-06-10T00:13:06;14.93;;;10.60;;
48574;SDS011;34352;51.084;3.712;2023-06-10T00:15:37;17.02;;;11.43;;
48574;SDS011;34352;51.084;3.712;2023-06-10T00:18:03;13.57;;;11.30;;
48574;SDS011;34352;51.084;3.712;2023-06-10T00:20:29;13.68;;;11.55;;
48574;SDS011;34352;51.084;3.712;2023-06-10T00:22:56;12.27;;;11.18;;
48574;SDS011;34352;51.084;3.712;2023-06-10T00:25:24;12.85;;;11.43;;
48574;SDS011;34352;51.084;3.712;2023-06-10T00:27:51;13.32;;;11.82;;
48574;SDS011;34352;51.084;3.712;2023-06-10T00:30:16;12.93;;;11.50;;
48574;SDS011;34352;51.084;3.712;2023-06-10T00:32:43;12.85;;;11.13;;
48574;SDS011;34352;51.084;3.712;2023-06-10T00:35:09;14.23;;;11.35;;
48574;SDS011;34352;51.084;3.712;2023-06-10T00:37:35;15.07;;;11.27;;
48574;SDS011;34352;51.084;3.712;2023-06-10T00:40:02;12.18;;;11.00;;
48574;SDS011;34352;51.084;3.712;2023-06-10T00:42:34;13.65;;;11.45;;
48574;SDS011;34352;51.084;3.712;2023-06-10T00:45:00;13.63;;;11.82;;
48574;SDS011;34352;51.084;3.712;2023-06-10T00:47:26;14.70;;;11.68;;
48574;SDS011;34352;51.084;3.712;2023-06-10T00:49:52;14.95;;;12.38;;
48574;SDS011;34352;51.084;3.712;2023-06-10T00:52:19;13.82;;;12.27;;
48574;SDS011;34352;51.084;3.712;2023-06-10T00:54:51;12.95;;;11.75;;
48574;SDS011;34352;51.084;3.712;2023-06-10T00:57:17;13.68;;;12.27;;
48574;SDS011;34352;51.084;3.712;2023-06-10T00:59:44;13.15;;;11.68;;
48574;SDS011;34352;51.084;3.712;2023-06-10T01:02:14;14.15;;;11.30;;
48574;SDS011;34352;51.084;3.712;2023-06-10T01:04:42;15.60;;;12.07;;
48574;SDS011;34352;51.084;3.712;2023-06-10T01:07:24;13.50;;;12.10;;
48574;SDS011;34352;51.084;3.712;2023-06-10T01:09:59;13.65;;;11.65;;
48574;SDS011;34352;51.084;3.712;2023-06-10T01:13:02;13.07;;;11.80;;
48574;SDS011;34352;51.084;3.712;2023-06-10T01:15:25;12.77;;;11.60;;
48574;SDS011;34352;51.084;3.712;2023-06-10T01:17:59;14.43;;;11.80;;
48574;SDS011;34352;51.084;3.712;2023-06-10T01:20:29;14.15;;;11.55;;
48574;SDS011;34352;51.084;3.712;2023-06-10T01:22:58;14.07;;;11.30;;
48574;SDS011;34352;51.084;3.712;2023-06-10T01:25:26;13.43;;;12.02;;
48574;SDS011;34352;51.084;3.712;2023-06-10T01:33:16;16.80;;;12.80;;
48574;SDS011;34352;51.084;3.712;2023-06-10T01:35:48;14.73;;;12.02;;
48574;SDS011;34352;51.084;3.712;2023-06-10T01:38:16;18.58;;;12.90;;
48574;SDS011;34352;51.084;3.712;2023-06-10T01:40:44;14.80;;;12.73;;
48574;SDS011;34352;51.084;3.712;2023-06-10T01:43:11;15.02;;;12.70;;
48574;SDS011;34352;51.084;3.712;2023-06-10T01:45:37;19.02;;;12.73;;
48574;SDS011;34352;51.084;3.712;2023-06-10T01:48:03;15.45;;;13.00;;
48574;SDS011;34352;51.084;3.712;2023-06-10T01:50:28;15.43;;;12.57;;
48574;SDS011;34352;51.084;3.712;2023-06-10T01:52:56;15.07;;;12.93;;
48574;SDS011;34352;51.084;3.712;2023-06-10T01:55:23;14.43;;;12.07;;
48574;SDS011;34352;51.084;3.712;2023-06-10T01:57:48;14.60;;;13.00;;
48574;SDS011;34352;51.084;3.712;2023-06-10T02:00:15;15.38;;;12.18;;
48574;SDS011;34352;51.084;3.712;2023-06-10T02:02:41;14.27;;;12.93;;
48574;SDS011;34352;51.084;3.712;2023-06-10T02:05:07;16.35;;;12.68;;
48574;SDS011;34352;51.084;3.712;2023-06-10T02:07:32;18.35;;;12.77;;
48574;SDS011;34352;51.084;3.712;2023-06-10T02:09:58;15.50;;;13.50;;
48574;SDS011;34352;51.084;3.712;2023-06-10T02:12:24;14.15;;;12.52;;
48574;SDS011;34352;51.084;3.712;2023-06-10T02:14:51;15.00;;;12.70;;
48574;SDS011;34352;51.084;3.712;2023-06-10T02:17:17;17.02;;;13.70;;
48574;SDS011;34352;51.084;3.712;2023-06-10T02:19:44;18.33;;;13.68;;
48574;SDS011;34352;51.084;3.712;2023-06-10T02:22:12;14.48;;;12.88;;
48574;SDS011;34352;51.084;3.712;2023-06-10T02:24:40;16.73;;;13.00;;
48574;SDS011;34352;51.084;3.712;2023-06-10T02:27:06;21.02;;;13.38;;
48574;SDS011;34352;51.084;3.712;2023-06-10T02:29:33;18.63;;;13.07;;
48574;SDS011;34352;51.084;3.712;2023-06-10T02:32:00;19.63;;;13.45;;
48574;SDS011;34352;51.084;3.712;2023-06-10T02:34:27;18.02;;;13.57;;
48574;SDS011;34352;51.084;3.712;2023-06-10T02:36:53;15.10;;;13.30;;
48574;SDS011;34352;51.084;3.712;2023-06-10T02:39:19;20.15;;;14.02;;
48574;SDS011;34352;51.084;3.712;2023-06-10T02:41:45;19.45;;;13.73;;
48574;SDS011;34352;51.084;3.712;2023-06-10T02:44:12;18.95;;;12.93;;
48574;SDS011;34352;51.084;3.712;2023-06-10T02:46:38;20.50;;;13.35;;
48574;SDS011;34352;51.084;3.712;2023-06-10T02:49:04;14.55;;;13.02;;
48574;SDS011;34352;51.084;3.712;2023-06-10T02:51:31;14.43;;;12.52;;
48574;SDS011;34352;51.084;3.712;2023-06-10T02:53:58;22.40;;;13.82;;
48574;SDS011;34352;51.084;3.712;2023-06-10T02:56:24;15.68;;;14.02;;
48574;SDS011;34352;51.084;3.712;2023-06-10T02:58:50;18.52;;;13.82;;
48574;SDS011;34352;51.084;3.712;2023-06-10T03:01:16;17.77;;;13.68;;
48574;SDS011;34352;51.084;3.712;2023-06-10T03:03:43;16.35;;;13.48;;
48574;SDS011;34352;51.084;3.712;2023-06-10T03:06:12;19.30;;;14.52;;
48574;SDS011;34352;51.084;3.712;2023-06-10T03:08:39;17.10;;;14.55;;
48574;SDS011;34352;51.084;3.712;2023-06-10T03:11:07;15.63;;;13.77;;
48574;SDS011;34352;51.084;3.712;2023-06-10T03:16:05;16.73;;;14.30;;
48574;SDS011;34352;51.084;3.712;2023-06-10T03:18:32;21.50;;;15.43;;
48574;SDS011;34352;51.084;3.712;2023-06-10T03:20:58;16.65;;;13.68;;
48574;SDS011;34352;51.084;3.712;2023-06-10T03:23:24;15.30;;;13.77;;
48574;SDS011;34352;51.084;3.712;2023-06-10T03:25:50;19.27;;;13.82;;
48574;SDS011;34352;51.084;3.712;2023-06-10T03:28:16;18.92;;;14.75;;
48574;SDS011;34352;51.084;3.712;2023-06-10T03:30:41;24.95;;;14.95;;
48574;SDS011;34352;51.084;3.712;2023-06-10T03:33:07;16.50;;;14.55;;
48574;SDS011;34352;51.084;3.712;2023-06-10T03:35:32;16.65;;;14.13;;
48574;SDS011;34352;51.084;3.712;2023-06-10T03:38:00;16.15;;;14.45;;
48574;SDS011;34352;51.084;3.712;2023-06-10T03:40:25;16.20;;;14.43;;
48574;SDS011;34352;51.084;3.712;2023-06-10T03:42:51;17.38;;;14.75;;
48574;SDS011;34352;51.084;3.712;2023-06-10T03:45:17;18.27;;;14.98;;
48574;SDS011;34352;51.084;3.712;2023-06-10T03:47:43;18.10;;;14.70;;
48574;SDS011;34352;51.084;3.712;2023-06-10T03:50:10;16.20;;;14.60;;
48574;SDS011;34352;51.084;3.712;2023-06-10T03:52:37;18.20;;;14.10;;
48574;SDS011;34352;51.084;3.712;2023-06-10T03:55:03;16.67;;;14.65;;
48574;SDS011;34352;51.084;3.712;2023-06-10T03:57:30;20.67;;;15.30;;
48574;SDS011;34352;51.084;3.712;2023-06-10T03:59:56;15.73;;;14.10;;
48574;SDS011;34352;51.084;3.712;2023-06-10T04:02:21;17.13;;;14.65;;
48574;SDS011;34352;51.084;3.712;2023-06-10T04:04:47;17.40;;;15.10;;
48574;SDS011;34352;51.084;3.712;2023-06-10T04:07:13;16.48;;;14.63;;
48574;SDS011;34352;51.084;3.712;2023-06-10T04:09:39;16.95;;;14.77;;
48574;SDS011;34352;51.084;3.712;2023-06-10T04:12:05;17.13;;;14.35;;
48574;SDS011;34352;51.084;3.712;2023-06-10T04:14:33;17.92;;;13.70;;
48574;SDS011;34352;51.084;3.712;2023-06-10T04:17:01;16.98;;;14.18;;
48574;SDS011;34352;51.084;3.712;2023-06-10T04:19:27;17.42;;;14.55;;
48574;SDS011;34352;51.084;3.712;2023-06-10T04:21:53;16.58;;;14.85;;
48574;SDS011;34352;51.084;3.712;2023-06-10T04:24:19;18.45;;;14.90;;
48574;SDS011;34352;51.084;3.712;2023-06-10T04:26:45;16.92;;;15.15;;
48574;SDS011;34352;51.084;3.712;2023-06-10T04:29:11;19.33;;;14.70;;
48574;SDS011;34352;51.084;3.712;2023-06-10T04:31:36;17.33;;;15.27;;
48574;SDS011;34352;51.084;3.712;2023-06-10T04:34:02;17.55;;;15.73;;
48574;SDS011;34352;51.084;3.712;2023-06-10T04:36:28;18.10;;;14.60;;
48574;SDS011;34352;51.084;3.712;2023-06-10T04:38:55;18.75;;;15.13;;
48574;SDS011;34352;51.084;3.712;2023-06-10T04:41:20;16.52;;;14.93;;
48574;SDS011;34352;51.084;3.712;2023-06-10T04:43:48;18.15;;;14.70;;
48574;SDS011;34352;51.084;3.712;2023-06-10T04:46:15;17.30;;;15.13;;
48574;SDS011;34352;51.084;3.712;2023-06-10T04:48:40;19.23;;;14.85;;
48574;SDS011;34352;51.084;3.712;2023-06-10T04:51:07;23.02;;;15.70;;
48574;SDS011;34352;51.084;3.712;2023-06-10T04:53:32;23.10;;;15.55;;
48574;SDS011;34352;51.084;3.712;2023-06-10T04:55:58;25.50;;;15.43;;
48574;SDS011;34352;51.084;3.712;2023-06-10T04:58:25;20.85;;;15.57;;
48574;SDS011;34352;51.084;3.712;2023-06-10T05:00:50;20.80;;;15.25;;
48574;SDS011;34352;51.084;3.712;2023-06-10T05:03:16;22.65;;;15.27;;
48574;SDS011;34352;51.084;3.712;2023-06-10T05:05:42;20.40;;;15.30;;
48574;SDS011;34352;51.084;3.712;2023-06-10T05:08:07;23.70;;;15.30;;
48574;SDS011;34352;51.084;3.712;2023-06-10T05:10:33;19.05;;;15.70;;
48574;SDS011;34352;51.084;3.712;2023-06-10T05:12:59;23.38;;;15.48;;
48574;SDS011;34352;51.084;3.712;2023-06-10T05:15:25;18.20;;;15.43;;
48574;SDS011;34352;51.084;3.712;2023-06-10T05:17:51;23.77;;;15.60;;
48574;SDS011;34352;51.084;3.712;2023-06-10T05:20:17;19.88;;;15.27;;
48574;SDS011;34352;51.084;3.712;2023-06-10T05:22:43;22.17;;;16.42;;
48574;SDS011;34352;51.084;3.712;2023-06-10T05:25:09;22.27;;;16.27;;
48574;SDS011;34352;51.084;3.712;2023-06-10T05:27:35;18.10;;;15.35;;
48574;SDS011;34352;51.084;3.712;2023-06-10T05:35:07;17.55;;;15.75;;
48574;SDS011;34352;51.084;3.712;2023-06-10T05:37:33;17.83;;;14.43;;
48574;SDS011;34352;51.084;3.712;2023-06-10T05:40:00;17.30;;;14.95;;
48574;SDS011;34352;51.084;3.712;2023-06-10T05:42:25;19.80;;;14.55;;
48574;SDS011;34352;51.084;3.712;2023-06-10T05:44:51;16.85;;;14.50;;
48574;SDS011;34352;51.084;3.712;2023-06-10T05:47:18;17.73;;;14.50;;
48574;SDS011;34352;51.084;3.712;2023-06-10T05:49:43;17.08;;;14.48;;
48574;SDS011;34352;51.084;3.712;2023-06-10T05:52:13;21.05;;;15.50;;
48574;SDS011;34352;51.084;3.712;2023-06-10T05:54:38;15.43;;;13.85;;
48574;SDS011;34352;51.084;3.712;2023-06-10T05:57:06;17.30;;;14.43;;
48574;SDS011;34352;51.084;3.712;2023-06-10T05:59:32;18.75;;;14.43;;
48574;SDS011;34352;51.084;3.712;2023-06-10T06:01:58;16.35;;;14.65;;
48574;SDS011;34352;51.084;3.712;2023-06-10T06:04:23;17.00;;;14.50;;
48574;SDS011;34352;51.084;3.712;2023-06-10T06:06:49;15.43;;;13.77;;
48574;SDS011;34352;51.084;3.712;2023-06-10T06:09:15;16.15;;;14.55;;
48574;SDS011;34352;51.084;3.712;2023-06-10T06:11:40;16.45;;;14.65;;
48574;SDS011;34352;51.084;3.712;2023-06-10T06:14:06;16.02;;;14.32;;
48574;SDS011;34352;51.084;3.712;2023-06-10T06:16:32;15.40;;;13.90;;
48574;SDS011;34352;51.084;3.712;2023-06-10T06:18:58;16.05;;;14.38;;
48574;SDS011;34352;51.084;3.712;2023-06-10T06:21:23;18.27;;;13.95;;
48574;SDS011;34352;51.084;3.712;2023-06-10T06:23:49;15.50;;;14.00;;
48574;SDS011;34352;51.084;3.712;2023-06-10T06:26:15;18.67;;;14.20;;
48574;SDS011;34352;51.084;3.712;2023-06-10T06:28:40;18.10;;;15.55;;
48574;SDS011;34352;51.084;3.712;2023-06-10T06:31:06;22.77;;;15.00;;
48574;SDS011;34352;51.084;3.712;2023-06-10T06:33:32;16.23;;;14.32;;
48574;SDS011;34352;51.084;3.712;2023-06-10T06:35:58;15.60;;;13.40;;
48574;SDS011;34352;51.084;3.712;2023-06-10T06:38:25;16.02;;;13.95;;
48574;SDS011;34352;51.084;3.712;2023-06-10T06:40:51;17.20;;;14.02;;
48574;SDS011;34352;51.084;3.712;2023-06-10T06:43:17;15.40;;;13.90;;
48574;SDS011;34352;51.084;3.712;2023-06-10T06:45:43;14.95;;;13.27;;
48574;SDS011;34352;51.084;3.712;2023-06-10T06:48:10;15.88;;;14.27;;
48574;SDS011;34352;51.084;3.712;2023-06-10T06:50:36;15.85;;;14.13;;
48574;SDS011;34352;51.084;3.712;2023-06-10T06:53:02;15.15;;;13.65;;
48574;SDS011;34352;51.084;3.712;2023-06-10T06:55:28;16.50;;;13.73;;
48574;SDS011;34352;51.084;3.712;2023-06-10T06:57:53;15.43;;;13.50;;
48574;SDS011;34352;51.084;3.712;2023-06-10T07:00:19;14.73;;;13.32;;
48574;SDS011;34352;51.084;3.712;2023-06-10T07:02:45;20.08;;;13.38;;
48574;SDS011;34352;51.084;3.712;2023-06-10T07:05:10;15.63;;;13.95;;
48574;SDS011;34352;51.084;3.712;2023-06-10T07:07:36;14.85;;;13.27;;
48574;SDS011;34352;51.084;3.712;2023-06-10T07:10:02;23.00;;;14.30;;
48574;SDS011;34352;51.084;3.712;2023-06-10T07:12:28;14.52;;;13.13;;
48574;SDS011;34352;51.084;3.712;2023-06-10T07:14:53;16.23;;;12.63;;
48574;SDS011;34352;51.084;3.712;2023-06-10T07:17:19;14.95;;;13.35;;
48574;SDS011;34352;51.084;3.712;2023-06-10T07:19:45;15.25;;;12.52;;
48574;SDS011;34352;51.084;3.712;2023-06-10T07:22:11;14.75;;;12.80;;
48574;SDS011;34352;51.084;3.712;2023-06-10T07:24:37;14.32;;;12.85;;
48574;SDS011;34352;51.084;3.712;2023-06-10T07:27:03;13.05;;;11.55;;
48574;SDS011;34352;51.084;3.712;2023-06-10T07:29:30;14.13;;;11.70;;
48574;SDS011;34352;51.084;3.712;2023-06-10T07:31:56;15.18;;;12.48;;
48574;SDS011;34352;51.084;3.712;2023-06-10T07:34:21;14.50;;;12.40;;
48574;SDS011;34352;51.084;3.712;2023-06-10T07:36:47;19.15;;;12.82;;
48574;SDS011;34352;51.084;3.712;2023-06-10T07:39:13;13.85;;;12.55;;
48574;SDS011;34352;51.084;3.712;2023-06-10T07:41:38;12.82;;;11.63;;
48574;SDS011;34352;51.084;3.712;2023-06-10T07:44:04;13.25;;;11.75;;
48574;SDS011;34352;51.084;3.712;2023-06-10T07:46:30;13.70;;;12.30;;
48574;SDS011;34352;51.084;3.712;2023-06-10T07:48:55;12.18;;;10.95;;
48574;SDS011;34352;51.084;3.712;2023-06-10T07:51:21;17.58;;;12.20;;
48574;SDS011;34352;51.084;3.712;2023-06-10T07:53:47;13.32;;;11.98;;
48574;SDS011;34352;51.084;3.712;2023-06-10T07:56:13;13.38;;;12.07;;
48574;SDS011;34352;51.084;3.712;2023-06-10T07:58:38;13.35;;;12.10;;
48574;SDS011;34352;51.084;3.712;2023-06-10T08:01:04;13.85;;;11.43;;
48574;SDS011;34352;51.084;3.712;2023-06-10T08:03:30;14.48;;;11.20;;
48574;SDS011;34352;51.084;3.712;2023-06-10T08:05:55;13.52;;;11.57;;
48574;SDS011;34352;51.084;3.712;2023-06-10T08:08:21;16.23;;;11.52;;
48574;SDS011;34352;51.084;3.712;2023-06-10T08:10:47;14.02;;;11.35;;
48574;SDS011;34352;51.084;3.712;2023-06-10T08:13:14;12.55;;;11.20;;
48574;SDS011;34352;51.084;3.712;2023-06-10T08:15:40;13.05;;;10.38;;
48574;SDS011;34352;51.084;3.712;2023-06-10T08:18:05;11.77;;;10.57;;
48574;SDS011;34352;51.084;3.712;2023-06-10T08:20:31;14.02;;;10.98;;
48574;SDS011;34352;51.084;3.712;2023-06-10T08:22:57;11.60;;;10.43;;
48574;SDS011;34352;51.084;3.712;2023-06-10T08:25:23;11.23;;;9.98;;
48574;SDS011;34352;51.084;3.712;2023-06-10T08:27:48;14.32;;;11.02;;
48574;SDS011;34352;51.084;3.712;2023-06-10T08:30:15;12.15;;;9.77;;
48574;SDS011;34352;51.084;3.712;2023-06-10T08:32:41;12.25;;;10.60;;
48574;SDS011;34352;51.084;3.712;2023-06-10T08:35:07;11.43;;;10.32;;
48574;SDS011;34352;51.084;3.712;2023-06-10T08:37:33;13.35;;;10.55;;
48574;SDS011;34352;51.084;3.712;2023-06-10T08:39:58;13.88;;;11.10;;
48574;SDS011;34352;51.084;3.712;2023-06-10T08:42:28;12.88;;;10.52;;
48574;SDS011;34352;51.084;3.712;2023-06-10T08:44:58;10.73;;;9.82;;
48574;SDS011;34352;51.084;3.712;2023-06-10T08:47:29;11.48;;;10.07;;
48574;SDS011;34352;51.084;3.712;2023-06-10T08:50:01;11.85;;;9.90;;
48574;SDS011;34352;51.084;3.712;2023-06-10T08:52:29;12.40;;;11.07;;
48574;SDS011;34352;51.084;3.712;2023-06-10T08:55:02;10.07;;;9.07;;
48574;SDS011;34352;51.084;3.712;2023-06-10T08:57:31;10.55;;;9.55;;
48574;SDS011;34352;51.084;3.712;2023-06-10T08:59:57;9.63;;;8.73;;
48574;SDS011;34352;51.084;3.712;2023-06-10T09:02:23;12.23;;;9.63;;
48574;SDS011;34352;51.084;3.712;2023-06-10T09:04:49;14.95;;;10.57;;
48574;SDS011;34352;51.084;3.712;2023-06-10T09:07:16;10.77;;;9.77;;
48574;SDS011;34352;51.084;3.712;2023-06-10T09:09:43;11.13;;;9.95;;
48574;SDS011;34352;51.084;3.712;2023-06-10T09:12:10;10.52;;;9.52;;
48574;SDS011;34352;51.084;3.712;2023-06-10T09:14:38;11.07;;;9.00;;
48574;SDS011;34352;51.084;3.712;2023-06-10T09:17:05;12.60;;;9.50;;
48574;SDS011;34352;51.084;3.712;2023-06-10T09:19:31;10.73;;;9.38;;
48574;SDS011;34352;51.084;3.712;2023-06-10T09:21:57;10.70;;;9.57;;
48574;SDS011;34352;51.084;3.712;2023-06-10T09:24:23;13.25;;;9.32;;
48574;SDS011;34352;51.084;3.712;2023-06-10T09:26:50;10.23;;;9.23;;
48574;SDS011;34352;51.084;3.712;2023-06-10T09:29:26;10.85;;;9.30;;
48574;SDS011;34352;51.084;3.712;2023-06-10T09:31:52;10.60;;;9.45;;
48574;SDS011;34352;51.084;3.712;2023-06-10T09:34:18;9.77;;;8.77;;
48574;SDS011;34352;51.084;3.712;2023-06-10T09:36:45;12.95;;;9.18;;
48574;SDS011;34352;51.084;3.712;2023-06-10T09:39:16;10.60;;;9.50;;
48574;SDS011;34352;51.084;3.712;2023-06-10T09:41:44;12.73;;;9.32;;
48574;SDS011;34352;51.084;3.712;2023-06-10T09:44:11;11.80;;;9.30;;
48574;SDS011;34352;51.084;3.712;2023-06-10T09:46:39;11.20;;;9.15;;
48574;SDS011;34352;51.084;3.712;2023-06-10T09:49:05;10.10;;;9.10;;
48574;SDS011;34352;51.084;3.712;2023-06-10T09:51:31;14.27;;;9.35;;
48574;SDS011;34352;51.084;3.712;2023-06-10T09:53:57;10.57;;;9.23;;
48574;SDS011;34352;51.084;3.712;2023-06-10T09:56:36;10.52;;;9.35;;
48574;SDS011;34352;51.084;3.712;2023-06-10T09:59:02;10.82;;;9.55;;
48574;SDS011;34352;51.084;3.712;2023-06-10T10:01:31;9.82;;;8.82;;
48574;SDS011;34352;51.084;3.712;2023-06-10T10:03:58;10.65;;;8.95;;
48574;SDS011;34352;51.084;3.712;2023-06-10T10:06:24;10.32;;;9.18;;
48574;SDS011;34352;51.084;3.712;2023-06-10T10:08:50;10.70;;;8.63;;
48574;SDS011;34352;51.084;3.712;2023-06-10T10:11:17;10.32;;;8.98;;
48574;SDS011;34352;51.084;3.712;2023-06-10T10:13:46;10.60;;;8.73;;
48574;SDS011;34352;51.084;3.712;2023-06-10T10:16:17;14.70;;;9.43;;
48574;SDS011;34352;51.084;3.712;2023-06-10T10:18:48;10.63;;;9.02;;
48574;SDS011;34352;51.084;3.712;2023-06-10T10:21:21;10.02;;;8.98;;
48574;SDS011;34352;51.084;3.712;2023-06-10T10:23:53;11.05;;;9.30;;
48574;SDS011;34352;51.084;3.712;2023-06-10T10:26:21;9.73;;;8.65;;
48574;SDS011;34352;51.084;3.712;2023-06-10T10:28:51;8.93;;;8.07;;
48574;SDS011;34352;51.084;3.712;2023-06-10T10:31:27;8.90;;;7.95;;
48574;SDS011;34352;51.084;3.712;2023-06-10T10:33:58;8.43;;;7.63;;
48574;SDS011;34352;51.084;3.712;2023-06-10T10:36:25;8.40;;;7.55;;
48574;SDS011;34352;51.084;3.712;2023-06-10T10:38:51;9.30;;;8.10;;
48574;SDS011;34352;51.084;3.712;2023-06-10T10:41:18;9.70;;;7.72;;
48574;SDS011;34352;51.084;3.712;2023-06-10T10:43:45;9.07;;;8.10;;
48574;SDS011;34352;51.084;3.712;2023-06-10T10:46:16;9.07;;;8.27;;
48574;SDS011;34352;51.084;3.712;2023-06-10T10:48:42;8.60;;;7.80;;
48574;SDS011;34352;51.084;3.712;2023-06-10T10:51:09;8.90;;;7.57;;
48574;SDS011;34352;51.084;3.712;2023-06-10T10:53:39;11.00;;;8.20;;
48574;SDS011;34352;51.084;3.712;2023-06-10T10:56:12;8.00;;;7.30;;
48574;SDS011;34352;51.084;3.712;2023-06-10T10:58:39;7.88;;;7.10;;
48574;SDS011;34352;51.084;3.712;2023-06-10T11:01:12;9.55;;;6.90;;
48574;SDS011;34352;51.084;3.712;2023-06-10T11:03:43;9.00;;;7.50;;
48574;SDS011;34352;51.084;3.712;2023-06-10T11:06:13;9.68;;;7.60;;
48574;SDS011;34352;51.084;3.712;2023-06-10T11:11:18;8.88;;;7.25;;
48574;SDS011;34352;51.084;3.712;2023-06-10T11:16:28;11.25;;;7.13;;
48574;SDS011;34352;51.084;3.712;2023-06-10T11:18:54;8.15;;;7.00;;
48574;SDS011;34352;51.084;3.712;2023-06-10T11:21:22;9.45;;;7.53;;
48574;SDS011;34352;51.084;3.712;2023-06-10T11:23:49;8.70;;;7.80;;
48574;SDS011;34352;51.084;3.712;2023-06-10T11:34:11;8.00;;;7.20;;
48574;SDS011;34352;51.084;3.712;2023-06-10T11:36:39;9.32;;;8.10;;
48574;SDS011;34352;51.084;3.712;2023-06-10T11:39:10;10.98;;;7.28;;
48574;SDS011;34352;51.084;3.712;2023-06-10T11:41:36;9.73;;;7.45;;
48574;SDS011;34352;51.084;3.712;2023-06-10T11:44:10;8.98;;;8.07;;
48574;SDS011;34352;51.084;3.712;2023-06-10T11:46:37;9.23;;;7.05;;
48574;SDS011;34352;51.084;3.712;2023-06-10T11:49:04;7.97;;;7.22;;
48574;SDS011;34352;51.084;3.712;2023-06-10T11:51:34;15.10;;;8.20;;
48574;SDS011;34352;51.084;3.712;2023-06-10T11:54:02;12.60;;;8.00;;
48574;SDS011;34352;51.084;3.712;2023-06-10T11:56:29;13.07;;;7.72;;
48574;SDS011;34352;51.084;3.712;2023-06-10T11:58:57;10.43;;;7.65;;
48574;SDS011;34352;51.084;3.712;2023-06-10T12:01:29;9.25;;;7.50;;
48574;SDS011;34352;51.084;3.712;2023-06-10T12:04:05;9.63;;;7.45;;
48574;SDS011;34352;51.084;3.712;2023-06-10T12:06:43;8.77;;;7.88;;
48574;SDS011;34352;51.084;3.712;2023-06-10T12:12:02;9.95;;;8.23;;
48574;SDS011;34352;51.084;3.712;2023-06-10T12:19:59;8.02;;;7.22;;
48574;SDS011;34352;51.084;3.712;2023-06-10T12:22:48;8.43;;;7.63;;
48574;SDS011;34352;51.084;3.712;2023-06-10T12:25:14;8.32;;;7.45;;
48574;SDS011;34352;51.084;3.712;2023-06-10T12:27:49;9.93;;;7.55;;
48574;SDS011;34352;51.084;3.712;2023-06-10T12:30:21;11.15;;;6.97;;
48574;SDS011;34352;51.084;3.712;2023-06-10T12:32:49;12.82;;;6.53;;
48574;SDS011;34352;51.084;3.712;2023-06-10T12:35:19;12.82;;;7.32;;
48574;SDS011;34352;51.084;3.712;2023-06-10T12:38:01;8.18;;;7.30;;
48574;SDS011;34352;51.084;3.712;2023-06-10T12:40:32;8.35;;;7.40;;
48574;SDS011;34352;51.084;3.712;2023-06-10T12:43:07;8.23;;;7.43;;
48574;SDS011;34352;51.084;3.712;2023-06-10T12:45:34;9.20;;;7.05;;
48574;SDS011;34352;51.084;3.712;2023-06-10T12:50:56;10.93;;;7.47;;
48574;SDS011;34352;51.084;3.712;2023-06-10T12:53:23;8.27;;;7.43;;
48574;SDS011;34352;51.084;3.712;2023-06-10T12:55:51;10.32;;;7.07;;
48574;SDS011;34352;51.084;3.712;2023-06-10T12:58:18;9.25;;;7.78;;
48574;SDS011;34352;51.084;3.712;2023-06-10T13:00:45;8.45;;;7.65;;
48574;SDS011;34352;51.084;3.712;2023-06-10T13:03:11;9.32;;;7.18;;
48574;SDS011;34352;51.084;3.712;2023-06-10T13:05:38;9.52;;;7.72;;
48574;SDS011;34352;51.084;3.712;2023-06-10T13:08:07;8.50;;;7.63;;
48574;SDS011;34352;51.084;3.712;2023-06-10T13:10:35;11.75;;;7.47;;
48574;SDS011;34352;51.084;3.712;2023-06-10T13:13:02;12.07;;;8.05;;
48574;SDS011;34352;51.084;3.712;2023-06-10T13:15:31;11.85;;;8.35;;
48574;SDS011;34352;51.084;3.712;2023-06-10T13:18:01;10.33;;;8.70;;
48574;SDS011;34352;51.084;3.712;2023-06-10T13:20:28;9.38;;;8.38;;
48574;SDS011;34352;51.084;3.712;2023-06-10T13:22:54;10.05;;;7.93;;
48574;SDS011;34352;51.084;3.712;2023-06-10T13:25:20;10.80;;;8.07;;
48574;SDS011;34352;51.084;3.712;2023-06-10T13:27:46;11.85;;;7.65;;
48574;SDS011;34352;51.084;3.712;2023-06-10T13:30:12;12.63;;;7.90;;
48574;SDS011;34352;51.084;3.712;2023-06-10T13:32:40;7.95;;;6.90;;
48574;SDS011;34352;51.084;3.712;2023-06-10T13:35:06;8.65;;;7.88;;
48574;SDS011;34352;51.084;3.712;2023-06-10T13:37:32;8.88;;;7.97;;
48574;SDS011;34352;51.084;3.712;2023-06-10T13:39:59;8.15;;;7.45;;
48574;SDS011;34352;51.084;3.712;2023-06-10T13:42:25;9.15;;;7.55;;
48574;SDS011;34352;51.084;3.712;2023-06-10T13:44:51;9.23;;;7.65;;
48574;SDS011;34352;51.084;3.712;2023-06-10T13:47:17;11.25;;;7.85;;
48574;SDS011;34352;51.084;3.712;2023-06-10T13:49:43;11.38;;;8.48;;
48574;SDS011;34352;51.084;3.712;2023-06-10T13:52:09;11.05;;;8.73;;
48574;SDS011;34352;51.084;3.712;2023-06-10T13:54:34;11.00;;;8.55;;
48574;SDS011;34352;51.084;3.712;2023-06-10T13:57:03;9.82;;;8.63;;
48574;SDS011;34352;51.084;3.712;2023-06-10T13:59:29;9.88;;;8.63;;
48574;SDS011;34352;51.084;3.712;2023-06-10T14:01:55;9.50;;;8.30;;
48574;SDS011;34352;51.084;3.712;2023-06-10T14:04:21;13.10;;;8.75;;
48574;SDS011;34352;51.084;3.712;2023-06-10T14:06:47;8.98;;;8.05;;
48574;SDS011;34352;51.084;3.712;2023-06-10T14:09:13;9.05;;;8.10;;
48574;SDS011;34352;51.084;3.712;2023-06-10T14:11:39;9.35;;;8.35;;
48574;SDS011;34352;51.084;3.712;2023-06-10T14:14:05;9.48;;;8.13;;
48574;SDS011;34352;51.084;3.712;2023-06-10T14:16:32;9.02;;;8.13;;
48574;SDS011;34352;51.084;3.712;2023-06-10T14:18:58;9.45;;;8.57;;
48574;SDS011;34352;51.084;3.712;2023-06-10T14:21:23;9.45;;;8.35;;
48574;SDS011;34352;51.084;3.712;2023-06-10T14:23:50;12.98;;;8.73;;
48574;SDS011;34352;51.084;3.712;2023-06-10T14:26:18;15.20;;;9.05;;
48574;SDS011;34352;51.084;3.712;2023-06-10T14:28:46;9.32;;;7.90;;
48574;SDS011;34352;51.084;3.712;2023-06-10T14:31:13;13.43;;;9.00;;
48574;SDS011;34352;51.084;3.712;2023-06-10T14:33:39;9.98;;;8.55;;
48574;SDS011;34352;51.084;3.712;2023-06-10T14:36:07;13.07;;;8.90;;
48574;SDS011;34352;51.084;3.712;2023-06-10T14:38:35;9.65;;;8.60;;
48574;SDS011;34352;51.084;3.712;2023-06-10T14:41:01;10.05;;;8.65;;
48574;SDS011;34352;51.084;3.712;2023-06-10T14:43:28;10.10;;;8.82;;
48574;SDS011;34352;51.084;3.712;2023-06-10T14:45:54;11.32;;;8.38;;
48574;SDS011;34352;51.084;3.712;2023-06-10T14:48:21;9.57;;;8.57;;
48574;SDS011;34352;51.084;3.712;2023-06-10T14:50:49;9.40;;;8.45;;
48574;SDS011;34352;51.084;3.712;2023-06-10T14:53:19;9.63;;;8.10;;
48574;SDS011;34352;51.084;3.712;2023-06-10T14:55:45;18.20;;;8.50;;
48574;SDS011;34352;51.084;3.712;2023-06-10T15:00:41;9.40;;;8.38;;
48574;SDS011;34352;51.084;3.712;2023-06-10T15:03:20;9.80;;;8.05;;
48574;SDS011;34352;51.084;3.712;2023-06-10T15:05:47;9.50;;;7.97;;
48574;SDS011;34352;51.084;3.712;2023-06-10T15:08:14;8.50;;;7.57;;